Aviation Digital Data Service (ADDS)

Output produced by METARs form (1847 UTC 19 April 2019)
found at http://www.aviationweather.gov/metar/data/
 
METAR text: MMMX 191749Z VRB03KT 8SM SKC 20/04 A3038 NOSIG RMK SLP104 57007 940 HZY CU FRMG S-SW
Conditions at: MMMX (MEXICO CITY/LICE, MX) observed 1749 UTC 19 April 2019
Temperature: 20.0°C (68°F)
Dewpoint: 4.0°C (39°F) [RH = 35%]
Pressure (altimeter): 30.38 inches Hg (1028.9 mb)
[Sea-level pressure: 1010.4 mb]
Winds: variable direction winds at 3 MPH (3 knots; 1.5 m/s)
Visibility: 8 miles (13 km)
Ceiling: at least 12,000 feet AGL
Clouds: clear skies
Weather: no significant weather observed at this time

METAR text: MMMX 191709Z 34006KT 8SM SKC 19/03 A3039 NOSIG RMK HZY
Conditions at: MMMX (MEXICO CITY/LICE, MX) observed 1709 UTC 19 April 2019
Temperature: 19.0°C (66°F)
Dewpoint: 3.0°C (37°F) [RH = 34%]
Pressure (altimeter): 30.39 inches Hg (1029.2 mb)
Winds: from the NNW (340 degrees) at 7 MPH (6 knots; 3.1 m/s)
Visibility: 8 miles (13 km)
Ceiling: at least 12,000 feet AGL
Clouds: clear skies
Weather: no significant weather observed at this time

METAR text: MMMX 191642Z 03008KT 10SM SKC 17/03 A3040 NOSIG RMK AC
Conditions at: MMMX (MEXICO CITY/LICE, MX) observed 1642 UTC 19 April 2019
Temperature: 17.0°C (63°F)
Dewpoint: 3.0°C (37°F) [RH = 39%]
Pressure (altimeter): 30.40 inches Hg (1029.5 mb)
Winds: from the NNE (30 degrees) at 9 MPH (8 knots; 4.1 m/s)
Visibility: 10 or more miles (16+ km)
Ceiling: at least 12,000 feet AGL
Clouds: clear skies
Weather: no significant weather observed at this time

METAR text: MMMX 191554Z 33006KT 10SM SKC 17/03 A3041 NOSIG
Conditions at: MMMX (MEXICO CITY/LICE, MX) observed 1554 UTC 19 April 2019
Temperature: 17.0°C (63°F)
Dewpoint: 3.0°C (37°F) [RH = 39%]
Pressure (altimeter): 30.41 inches Hg (1029.9 mb)
Winds: from the NNW (330 degrees) at 7 MPH (6 knots; 3.1 m/s)
Visibility: 10 or more miles (16+ km)
Ceiling: at least 12,000 feet AGL
Clouds: clear skies
Weather: no significant weather observed at this time

METAR text: MMMX 191553Z 01006KT 10SM SKC 17/03 A3041 NOSIG
Conditions at: MMMX (MEXICO CITY/LICE, MX) observed 1553 UTC 19 April 2019
Temperature: 17.0°C (63°F)
Dewpoint: 3.0°C (37°F) [RH = 39%]
Pressure (altimeter): 30.41 inches Hg (1029.9 mb)
Winds: from the N (10 degrees) at 7 MPH (6 knots; 3.1 m/s)
Visibility: 10 or more miles (16+ km)
Ceiling: at least 12,000 feet AGL
Clouds: clear skies
Weather: no significant weather observed at this time

METAR text: MMMX 191450Z 09004KT 12SM SKC 15/02 A3040 NOSIG RMK SLP125 52011 934
Conditions at: MMMX (MEXICO CITY/LICE, MX) observed 1450 UTC 19 April 2019
Temperature: 15.0°C (59°F)
Dewpoint: 2.0°C (36°F) [RH = 41%]
Pressure (altimeter): 30.40 inches Hg (1029.5 mb)
[Sea-level pressure: 1012.5 mb]
Winds: from the E (90 degrees) at 5 MPH (4 knots; 2.1 m/s)
Visibility: 12 miles (19 km)
Ceiling: at least 12,000 feet AGL
Clouds: clear skies
Weather: no significant weather observed at this time

METAR text: MMMX 191423Z 00000KT 12SM SKC 15/02 A3039 NOSIG
Conditions at: MMMX (MEXICO CITY/LICE, MX) observed 1423 UTC 19 April 2019
Temperature: 15.0°C (59°F)
Dewpoint: 2.0°C (36°F) [RH = 41%]
Pressure (altimeter): 30.39 inches Hg (1029.2 mb)
Winds: calm
Visibility: 12 miles (19 km)
Ceiling: at least 12,000 feet AGL
Clouds: clear skies
Weather: no significant weather observed at this time

METAR text: MMMX 191344Z 02006KT 12SM FEW030 SCT080 13/01 A3039 NOSIG RMK 8/530
Conditions at: MMMX (MEXICO CITY/LICE, MX) observed 1344 UTC 19 April 2019
Temperature: 13.0°C (55°F)
Dewpoint: 1.0°C (34°F) [RH = 44%]
Pressure (altimeter): 30.39 inches Hg (1029.2 mb)
Winds: from the NNE (20 degrees) at 7 MPH (6 knots; 3.1 m/s)
Visibility: 12 miles (19 km)
Ceiling: at least 12,000 feet AGL
Clouds: few clouds at 3000 feet AGL
scattered clouds at 8000 feet AGL
Weather: no significant weather observed at this time

METAR text: MMMX 191242Z 35005KT 12SM BKN030 BKN080 13/02 A3038 NOSIG RMK 8/530
Conditions at: MMMX (MEXICO CITY/LICE, MX) observed 1242 UTC 19 April 2019
Temperature: 13.0°C (55°F)
Dewpoint: 2.0°C (36°F) [RH = 47%]
Pressure (altimeter): 30.38 inches Hg (1028.9 mb)
Winds: from the N (350 degrees) at 6 MPH (5 knots; 2.6 m/s)
Visibility: 12 miles (19 km)
Ceiling: 3000 feet AGL
Clouds: broken clouds at 3000 feet AGL
broken clouds at 8000 feet AGL
Weather: no significant weather observed at this time

METAR text: MMMX 191145Z 35007KT 9SM SCT020 SCT080 12/01 A3036 NOSIG RMK SLP090 52013 942 8/530 HZY
Conditions at: MMMX (MEXICO CITY/LICE, MX) observed 1145 UTC 19 April 2019
Temperature: 12.0°C (54°F)
Dewpoint: 1.0°C (34°F) [RH = 47%]
Pressure (altimeter): 30.36 inches Hg (1028.2 mb)
[Sea-level pressure: 1009.0 mb]
Winds: from the N (350 degrees) at 8 MPH (7 knots; 3.6 m/s)
Visibility: 9 miles (14 km)
Ceiling: at least 12,000 feet AGL
Clouds: scattered clouds at 2000 feet AGL
scattered clouds at 8000 feet AGL
Weather: no significant weather observed at this time

METAR text: MMMX 191045Z 33007KT 9SM SCT020 SCT080 13/01 A3034 NOSIG RMK 8/530 HZY
Conditions at: MMMX (MEXICO CITY/LICE, MX) observed 1045 UTC 19 April 2019
Temperature: 13.0°C (55°F)
Dewpoint: 1.0°C (34°F) [RH = 44%]
Pressure (altimeter): 30.34 inches Hg (1027.5 mb)
Winds: from the NNW (330 degrees) at 8 MPH (7 knots; 3.6 m/s)
Visibility: 9 miles (14 km)
Ceiling: at least 12,000 feet AGL
Clouds: scattered clouds at 2000 feet AGL
scattered clouds at 8000 feet AGL
Weather: no significant weather observed at this time

METAR text: MMMX 190945Z 36008KT 8SM FEW020 SCT080 14/01 A3031 NOSIG RMK 8/530 HZY
Conditions at: MMMX (MEXICO CITY/LICE, MX) observed 0945 UTC 19 April 2019
Temperature: 14.0°C (57°F)
Dewpoint: 1.0°C (34°F) [RH = 41%]
Pressure (altimeter): 30.31 inches Hg (1026.5 mb)
Winds: from the N (360 degrees) at 9 MPH (8 knots; 4.1 m/s)
Visibility: 8 miles (13 km)
Ceiling: at least 12,000 feet AGL
Clouds: few clouds at 2000 feet AGL
scattered clouds at 8000 feet AGL
Weather: no significant weather observed at this time

METAR text: MMMX 190845Z 36011KT 8SM SCT020 15/05 A3031 NOSIG RMK SLP056 52007 934 8/500 HZY
Conditions at: MMMX (MEXICO CITY/LICE, MX) observed 0845 UTC 19 April 2019
Temperature: 15.0°C (59°F)
Dewpoint: 5.0°C (41°F) [RH = 51%]
Pressure (altimeter): 30.31 inches Hg (1026.5 mb)
[Sea-level pressure: 1005.6 mb]
Winds: from the N (360 degrees) at 13 MPH (11 knots; 5.7 m/s)
Visibility: 8 miles (13 km)
Ceiling: at least 12,000 feet AGL
Clouds: scattered clouds at 2000 feet AGL
Weather: no significant weather observed at this time

METAR text: MMMX 190745Z 02011KT 8SM SCT020 16/09 A3030 NOSIG RMK 8/500 HZY
Conditions at: MMMX (MEXICO CITY/LICE, MX) observed 0745 UTC 19 April 2019
Temperature: 16.0°C (61°F)
Dewpoint: 9.0°C (48°F) [RH = 63%]
Pressure (altimeter): 30.30 inches Hg (1026.2 mb)
Winds: from the NNE (20 degrees) at 13 MPH (11 knots; 5.7 m/s)
Visibility: 8 miles (13 km)
Ceiling: at least 12,000 feet AGL
Clouds: scattered clouds at 2000 feet AGL
Weather: no significant weather observed at this time

METAR text: MMMX 190739Z 36010KT 8SM SCT020 17/08 A3030 NOSIG RMK 8/500 HZY
Conditions at: MMMX (MEXICO CITY/LICE, MX) observed 0739 UTC 19 April 2019
Temperature: 17.0°C (63°F)
Dewpoint: 8.0°C (46°F) [RH = 55%]
Pressure (altimeter): 30.30 inches Hg (1026.2 mb)
Winds: from the N (360 degrees) at 12 MPH (10 knots; 5.1 m/s)
Visibility: 8 miles (13 km)
Ceiling: at least 12,000 feet AGL
Clouds: scattered clouds at 2000 feet AGL
Weather: no significant weather observed at this time

METAR text: MMMX 190646Z 31009KT 8SM FEW020 19/08 A3028 NOSIG RMK 8/500 HZY AC
Conditions at: MMMX (MEXICO CITY/LICE, MX) observed 0646 UTC 19 April 2019
Temperature: 19.0°C (66°F)
Dewpoint: 8.0°C (46°F) [RH = 49%]
Pressure (altimeter): 30.28 inches Hg (1025.5 mb)
Winds: from the NW (310 degrees) at 10 MPH (9 knots; 4.6 m/s)
Visibility: 8 miles (13 km)
Ceiling: at least 12,000 feet AGL
Clouds: few clouds at 2000 feet AGL
Weather: no significant weather observed at this time

METAR text: MMMX 190545Z 33009KT 8SM FEW020 20/08 A3028 NOSIG RMK SLP043 52025 916 8/500 HZY AC
Conditions at: MMMX (MEXICO CITY/LICE, MX) observed 0545 UTC 19 April 2019
Temperature: 20.0°C (68°F)
Dewpoint: 8.0°C (46°F) [RH = 46%]
Pressure (altimeter): 30.28 inches Hg (1025.5 mb)
[Sea-level pressure: 1004.3 mb]
Winds: from the NNW (330 degrees) at 10 MPH (9 knots; 4.6 m/s)
Visibility: 8 miles (13 km)
Ceiling: at least 12,000 feet AGL
Clouds: few clouds at 2000 feet AGL
Weather: no significant weather observed at this time

METAR text: MMMX 190445Z 36011KT 8SM FEW020 21/09 A3027 NOSIG RMK 8/500 HZY
Conditions at: MMMX (MEXICO CITY/LICE, MX) observed 0445 UTC 19 April 2019
Temperature: 21.0°C (70°F)
Dewpoint: 9.0°C (48°F) [RH = 46%]
Pressure (altimeter): 30.27 inches Hg (1025.1 mb)
Winds: from the N (360 degrees) at 13 MPH (11 knots; 5.7 m/s)
Visibility: 8 miles (13 km)
Ceiling: at least 12,000 feet AGL
Clouds: few clouds at 2000 feet AGL
Weather: no significant weather observed at this time

METAR text: MMMX 190345Z 03012KT 8SM SCT020 22/08 A3024 NOSIG RMK 8/500 HZY
Conditions at: MMMX (MEXICO CITY/LICE, MX) observed 0345 UTC 19 April 2019
Temperature: 22.0°C (72°F)
Dewpoint: 8.0°C (46°F) [RH = 41%]
Pressure (altimeter): 30.24 inches Hg (1024.1 mb)
Winds: from the NNE (30 degrees) at 14 MPH (12 knots; 6.2 m/s)
Visibility: 8 miles (13 km)
Ceiling: at least 12,000 feet AGL
Clouds: scattered clouds at 2000 feet AGL
Weather: no significant weather observed at this time

METAR text: MMMX 190249Z 04015KT 8SM SCT020 22/09 A3021 NOSIG RMK SLP019 52011 955 8/500 HZY
Conditions at: MMMX (MEXICO CITY/LICE, MX) observed 0249 UTC 19 April 2019
Temperature: 22.0°C (72°F)
Dewpoint: 9.0°C (48°F) [RH = 43%]
Pressure (altimeter): 30.21 inches Hg (1023.1 mb)
[Sea-level pressure: 1001.9 mb]
Winds: from the NE (40 degrees) at 17 MPH (15 knots; 7.7 m/s)
Visibility: 8 miles (13 km)
Ceiling: at least 12,000 feet AGL
Clouds: scattered clouds at 2000 feet AGL
Weather: no significant weather observed at this time

METAR text: MMMX 190239Z 05013KT 8SM SCT020 23/09 A3021 NOSIG RMK 8/500 HZY
Conditions at: MMMX (MEXICO CITY/LICE, MX) observed 0239 UTC 19 April 2019
Temperature: 23.0°C (73°F)
Dewpoint: 9.0°C (48°F) [RH = 41%]
Pressure (altimeter): 30.21 inches Hg (1023.1 mb)
Winds: from the NE (50 degrees) at 15 MPH (13 knots; 6.7 m/s)
Visibility: 8 miles (13 km)
Ceiling: at least 12,000 feet AGL
Clouds: scattered clouds at 2000 feet AGL
Weather: no significant weather observed at this time

METAR text: MMMX 190142Z 04012KT 8SM SCT020 25/04 A3018 NOSIG RMK 8/500 HZY
Conditions at: MMMX (MEXICO CITY/LICE, MX) observed 0142 UTC 19 April 2019
Temperature: 25.0°C (77°F)
Dewpoint: 4.0°C (39°F) [RH = 26%]
Pressure (altimeter): 30.18 inches Hg (1022.1 mb)
Winds: from the NE (40 degrees) at 14 MPH (12 knots; 6.2 m/s)
Visibility: 8 miles (13 km)
Ceiling: at least 12,000 feet AGL
Clouds: scattered clouds at 2000 feet AGL
Weather: no significant weather observed at this time

METAR text: MMMX 190120Z 10007KT 8SM SCT020 26/03 A3015 NOSIG RMK 8/500 HZY
Conditions at: MMMX (MEXICO CITY/LICE, MX) observed 0120 UTC 19 April 2019
Temperature: 26.0°C (79°F)
Dewpoint: 3.0°C (37°F) [RH = 23%]
Pressure (altimeter): 30.15 inches Hg (1021.1 mb)
Winds: from the E (100 degrees) at 8 MPH (7 knots; 3.6 m/s)
Visibility: 8 miles (13 km)
Ceiling: at least 12,000 feet AGL
Clouds: scattered clouds at 2000 feet AGL
Weather: no significant weather observed at this time

METAR text: MMMX 190042Z 13015KT 8SM SCT020 28/03 A3012 NOSIG RMK 8/400 HZY
Conditions at: MMMX (MEXICO CITY/LICE, MX) observed 0042 UTC 19 April 2019
Temperature: 28.0°C (82°F)
Dewpoint: 3.0°C (37°F) [RH = 20%]
Pressure (altimeter): 30.12 inches Hg (1020.1 mb)
Winds: from the SE (130 degrees) at 17 MPH (15 knots; 7.7 m/s)
Visibility: 8 miles (13 km)
Ceiling: at least 12,000 feet AGL
Clouds: scattered clouds at 2000 feet AGL
Weather: no significant weather observed at this time

METAR text: MMMX 182348Z 02010KT 10SM SCT020 29/M04 A3010 NOSIG RMK 8/400
Conditions at: MMMX (MEXICO CITY/LICE, MX) observed 2348 UTC 18 April 2019
Temperature: 29.0°C (84°F)
Dewpoint: -4.0°C (25°F) [RH = 11%]
Pressure (altimeter): 30.10 inches Hg (1019.4 mb)
Winds: from the NNE (20 degrees) at 12 MPH (10 knots; 5.1 m/s)
Visibility: 10 or more miles (16+ km)
Ceiling: at least 12,000 feet AGL
Clouds: scattered clouds at 2000 feet AGL
Weather: no significant weather observed at this time

METAR text: MMMX 182242Z 01011KT 10SM SCT020 30/M04 A3009 NOSIG RMK 8/100
Conditions at: MMMX (MEXICO CITY/LICE, MX) observed 2242 UTC 18 April 2019
Temperature: 30.0°C (86°F)
Dewpoint: -4.0°C (25°F) [RH = 11%]
Pressure (altimeter): 30.09 inches Hg (1019.0 mb)
Winds: from the N (10 degrees) at 13 MPH (11 knots; 5.7 m/s)
Visibility: 10 or more miles (16+ km)
Ceiling: at least 12,000 feet AGL
Clouds: scattered clouds at 2000 feet AGL
Weather: no significant weather observed at this time

METAR text: MMMX 182146Z 29003KT 10SM SCT030 30/M04 A3009 NOSIG RMK 8/100
Conditions at: MMMX (MEXICO CITY/LICE, MX) observed 2146 UTC 18 April 2019
Temperature: 30.0°C (86°F)
Dewpoint: -4.0°C (25°F) [RH = 11%]
Pressure (altimeter): 30.09 inches Hg (1019.0 mb)
Winds: from the WNW (290 degrees) at 3 MPH (3 knots; 1.5 m/s)
Visibility: 10 or more miles (16+ km)
Ceiling: at least 12,000 feet AGL
Clouds: scattered clouds at 3000 feet AGL
Weather: no significant weather observed at this time

METAR text: MMMX 182049Z 36006KT 12SM FEW035 30/M06 A3012 NOSIG RMK 8/100
Conditions at: MMMX (MEXICO CITY/LICE, MX) observed 2049 UTC 18 April 2019
Temperature: 30.0°C (86°F)
Dewpoint: -6.0°C (21°F) [RH =  9%]
Pressure (altimeter): 30.12 inches Hg (1020.1 mb)
Winds: from the N (360 degrees) at 7 MPH (6 knots; 3.1 m/s)
Visibility: 12 miles (19 km)
Ceiling: at least 12,000 feet AGL
Clouds: few clouds at 3500 feet AGL
Weather: no significant weather observed at this time

METAR text: MMMX 181944Z 07006KT 10SM FEW020 30/M05 A3014 NOSIG RMK 8/100
Conditions at: MMMX (MEXICO CITY/LICE, MX) observed 1944 UTC 18 April 2019
Temperature: 30.0°C (86°F)
Dewpoint: -5.0°C (23°F) [RH = 10%]
Pressure (altimeter): 30.14 inches Hg (1020.7 mb)
Winds: from the ENE (70 degrees) at 7 MPH (6 knots; 3.1 m/s)
Visibility: 10 or more miles (16+ km)
Ceiling: at least 12,000 feet AGL
Clouds: few clouds at 2000 feet AGL
Weather: no significant weather observed at this time

METAR text: MMMX 181843Z 34009KT 10SM SKC 29/M04 A3019 NOSIG RMK HZY CU
Conditions at: MMMX (MEXICO CITY/LICE, MX) observed 1843 UTC 18 April 2019
Temperature: 29.0°C (84°F)
Dewpoint: -4.0°C (25°F) [RH = 11%]
Pressure (altimeter): 30.19 inches Hg (1022.4 mb)
Winds: from the NNW (340 degrees) at 10 MPH (9 knots; 4.6 m/s)
Visibility: 10 or more miles (16+ km)
Ceiling: at least 12,000 feet AGL
Clouds: clear skies
Weather: no significant weather observed at this time

METAR text: MMMX 181752Z 34007KT 10SM SKC 28/M02 A3021 NOSIG RMK SLP020 57015 977 HZY CU FRMG 025
Conditions at: MMMX (MEXICO CITY/LICE, MX) observed 1752 UTC 18 April 2019
Temperature: 28.0°C (82°F)
Dewpoint: -2.0°C (28°F) [RH = 14%]
Pressure (altimeter): 30.21 inches Hg (1023.1 mb)
[Sea-level pressure: 1002.0 mb]
Winds: from the NNW (340 degrees) at 8 MPH (7 knots; 3.6 m/s)
Visibility: 10 or more miles (16+ km)
Ceiling: at least 12,000 feet AGL
Clouds: clear skies
Weather: no significant weather observed at this time

METAR text: MMMX 181728Z 29005KT 8SM SKC 28/M02 A3021 NOSIG RMK HZY
Conditions at: MMMX (MEXICO CITY/LICE, MX) observed 1728 UTC 18 April 2019
Temperature: 28.0°C (82°F)
Dewpoint: -2.0°C (28°F) [RH = 14%]
Pressure (altimeter): 30.21 inches Hg (1023.1 mb)
Winds: from the WNW (290 degrees) at 6 MPH (5 knots; 2.6 m/s)
Visibility: 8 miles (13 km)
Ceiling: at least 12,000 feet AGL
Clouds: clear skies
Weather: no significant weather observed at this time

METAR text: MMMX 181640Z 00000KT 8SM SKC 26/M02 A3024 NOSIG RMK HZY
Conditions at: MMMX (MEXICO CITY/LICE, MX) observed 1640 UTC 18 April 2019
Temperature: 26.0°C (79°F)
Dewpoint: -2.0°C (28°F) [RH = 16%]
Pressure (altimeter): 30.24 inches Hg (1024.1 mb)
Winds: calm
Visibility: 8 miles (13 km)
Ceiling: at least 12,000 feet AGL
Clouds: clear skies
Weather: no significant weather observed at this time

METAR text: MMMX 181617Z 05002KT 8SM SKC 26/00 A3025 NOSIG RMK HZY
Conditions at: MMMX (MEXICO CITY/LICE, MX) observed 1617 UTC 18 April 2019
Temperature: 26.0°C (79°F)
Dewpoint: 0.0°C (32°F) [RH = 18%]
Pressure (altimeter): 30.25 inches Hg (1024.5 mb)
Winds: from the NE (50 degrees) at 2 MPH (2 knots; 1.0 m/s)
Visibility: 8 miles (13 km)
Ceiling: at least 12,000 feet AGL
Clouds: clear skies
Weather: no significant weather observed at this time

METAR text: MMMX 181553Z 12005KT 7SM SKC 24/00 A3026 NOSIG RMK HZY
Conditions at: MMMX (MEXICO CITY/LICE, MX) observed 1553 UTC 18 April 2019
Temperature: 24.0°C (75°F)
Dewpoint: 0.0°C (32°F) [RH = 20%]
Pressure (altimeter): 30.26 inches Hg (1024.8 mb)
Winds: from the ESE (120 degrees) at 6 MPH (5 knots; 2.6 m/s)
Visibility: 7 miles (11 km)
Ceiling: at least 12,000 feet AGL
Clouds: clear skies
Weather: no significant weather observed at this time

METAR text: MMMX 181512Z 22003KT 7SM SKC 24/01 A3026 NOSIG RMK HZY
Conditions at: MMMX (MEXICO CITY/LICE, MX) observed 1512 UTC 18 April 2019
Temperature: 24.0°C (75°F)
Dewpoint: 1.0°C (34°F) [RH = 22%]
Pressure (altimeter): 30.26 inches Hg (1024.8 mb)
Winds: from the SW (220 degrees) at 3 MPH (3 knots; 1.5 m/s)
Visibility: 7 miles (11 km)
Ceiling: at least 12,000 feet AGL
Clouds: clear skies
Weather: no significant weather observed at this time

METAR text: MMMX 181446Z 00000KT 6SM SKC 22/02 A3026 NOSIG RMK SLP052 52019 971 HZY
Conditions at: MMMX (MEXICO CITY/LICE, MX) observed 1446 UTC 18 April 2019
Temperature: 22.0°C (72°F)
Dewpoint: 2.0°C (36°F) [RH = 27%]
Pressure (altimeter): 30.26 inches Hg (1024.8 mb)
[Sea-level pressure: 1005.2 mb]
Winds: calm
Visibility: 6 miles (10 km)
Ceiling: at least 12,000 feet AGL
Clouds: clear skies
Weather: no significant weather observed at this time

METAR text: MMMX 181407Z 14004KT 8SM SKC 20/05 A3026 NOSIG RMK HZY
Conditions at: MMMX (MEXICO CITY/LICE, MX) observed 1407 UTC 18 April 2019
Temperature: 20.0°C (68°F)
Dewpoint: 5.0°C (41°F) [RH = 37%]
Pressure (altimeter): 30.26 inches Hg (1024.8 mb)
Winds: from the SE (140 degrees) at 5 MPH (4 knots; 2.1 m/s)
Visibility: 8 miles (13 km)
Ceiling: at least 12,000 feet AGL
Clouds: clear skies
Weather: no significant weather observed at this time

METAR text: MMMX 181344Z 09003KT 8SM SKC 18/05 A3025 NOSIG RMK HZY
Conditions at: MMMX (MEXICO CITY/LICE, MX) observed 1344 UTC 18 April 2019
Temperature: 18.0°C (64°F)
Dewpoint: 5.0°C (41°F) [RH = 42%]
Pressure (altimeter): 30.25 inches Hg (1024.5 mb)
Winds: from the E (90 degrees) at 3 MPH (3 knots; 1.5 m/s)
Visibility: 8 miles (13 km)
Ceiling: at least 12,000 feet AGL
Clouds: clear skies
Weather: no significant weather observed at this time

METAR text: MMMX 181245Z 00000KT 8SM SKC 17/04 A3023 NOSIG RMK HZY
Conditions at: MMMX (MEXICO CITY/LICE, MX) observed 1245 UTC 18 April 2019
Temperature: 17.0°C (63°F)
Dewpoint: 4.0°C (39°F) [RH = 42%]
Pressure (altimeter): 30.23 inches Hg (1023.8 mb)
Winds: calm
Visibility: 8 miles (13 km)
Ceiling: at least 12,000 feet AGL
Clouds: clear skies
Weather: no significant weather observed at this time

METAR text: MMMX 181152Z 00000KT 8SM SKC 18/03 A3021 NOSIG RMK SLP019 52005 978 HZY ISOL CI
Conditions at: MMMX (MEXICO CITY/LICE, MX) observed 1152 UTC 18 April 2019
Temperature: 18.0°C (64°F)
Dewpoint: 3.0°C (37°F) [RH = 37%]
Pressure (altimeter): 30.21 inches Hg (1023.1 mb)
[Sea-level pressure: 1001.9 mb]
Winds: calm
Visibility: 8 miles (13 km)
Ceiling: at least 12,000 feet AGL
Clouds: clear skies
Weather: no significant weather observed at this time

METAR text: MMMX 181044Z 19004KT 8SM SKC 17/03 A3021 NOSIG RMK HZY
Conditions at: MMMX (MEXICO CITY/LICE, MX) observed 1044 UTC 18 April 2019
Temperature: 17.0°C (63°F)
Dewpoint: 3.0°C (37°F) [RH = 39%]
Pressure (altimeter): 30.21 inches Hg (1023.1 mb)
Winds: from the S (190 degrees) at 5 MPH (4 knots; 2.1 m/s)
Visibility: 8 miles (13 km)
Ceiling: at least 12,000 feet AGL
Clouds: clear skies
Weather: no significant weather observed at this time

METAR text: MMMX 180946Z 00000KT 8SM FEW100 17/04 A3021 NOSIG RMK 8/030 HZY
Conditions at: MMMX (MEXICO CITY/LICE, MX) observed 0946 UTC 18 April 2019
Temperature: 17.0°C (63°F)
Dewpoint: 4.0°C (39°F) [RH = 42%]
Pressure (altimeter): 30.21 inches Hg (1023.1 mb)
Winds: calm
Visibility: 8 miles (13 km)
Ceiling: at least 12,000 feet AGL
Clouds: few clouds at 10000 feet AGL
Weather: no significant weather observed at this time

METAR text: MMMX 180846Z 00000KT 6SM FEW100 17/05 A3020 NOSIG RMK SLP013 57011 986 8/030 HZY
Conditions at: MMMX (MEXICO CITY/LICE, MX) observed 0846 UTC 18 April 2019
Temperature: 17.0°C (63°F)
Dewpoint: 5.0°C (41°F) [RH = 45%]
Pressure (altimeter): 30.20 inches Hg (1022.8 mb)
[Sea-level pressure: 1001.3 mb]
Winds: calm
Visibility: 6 miles (10 km)
Ceiling: at least 12,000 feet AGL
Clouds: few clouds at 10000 feet AGL
Weather: no significant weather observed at this time

METAR text: MMMX 180816Z 11005KT 6SM FEW080 17/06 A3020 NOSIG RMK 8/030 HZY BR NE
Conditions at: MMMX (MEXICO CITY/LICE, MX) observed 0816 UTC 18 April 2019
Temperature: 17.0°C (63°F)
Dewpoint: 6.0°C (43°F) [RH = 48%]
Pressure (altimeter): 30.20 inches Hg (1022.8 mb)
Winds: from the ESE (110 degrees) at 6 MPH (5 knots; 2.6 m/s)
Visibility: 6 miles (10 km)
Ceiling: at least 12,000 feet AGL
Clouds: few clouds at 8000 feet AGL
Weather: no significant weather observed at this time

METAR text: MMMX 180749Z 00000KT 8SM FEW080 19/02 A3020 NOSIG RMK 8/030 HZY
Conditions at: MMMX (MEXICO CITY/LICE, MX) observed 0749 UTC 18 April 2019
Temperature: 19.0°C (66°F)
Dewpoint: 2.0°C (36°F) [RH = 32%]
Pressure (altimeter): 30.20 inches Hg (1022.8 mb)
Winds: calm
Visibility: 8 miles (13 km)
Ceiling: at least 12,000 feet AGL
Clouds: few clouds at 8000 feet AGL
Weather: no significant weather observed at this time

METAR text: MMMX 180651Z 17003KT 8SM SKC 19/04 A3021 NOSIG RMK HZY ISOL AC
Conditions at: MMMX (MEXICO CITY/LICE, MX) observed 0651 UTC 18 April 2019
Temperature: 19.0°C (66°F)
Dewpoint: 4.0°C (39°F) [RH = 37%]
Pressure (altimeter): 30.21 inches Hg (1023.1 mb)
Winds: from the S (170 degrees) at 3 MPH (3 knots; 1.5 m/s)
Visibility: 8 miles (13 km)
Ceiling: at least 12,000 feet AGL
Clouds: clear skies
Weather: no significant weather observed at this time

Forecast for: MMMX (MEXICO CITY/LICE, MX)
Text: TAF MMMX 191629Z 1918/2024 05010KT P6SM SCT030 TX25/1920Z TN14/2012Z
Forecast period: 1800 to 2100 UTC 19 April 2019
Forecast type: FROM: standard forecast or significant change
Winds: from the NE (50 degrees) at 12 MPH (10 knots; 5.1 m/s)
Visibility: 6 or more miles 10+ km)
Ceiling: at least 12,000 feet AGL
Clouds: scattered clouds at 3000 feet AGL
Weather: no significant weather forecast for this period
Text: FM192100 06012KT P6SM BKN030
Forecast period: 2100 UTC 19 April 2019 to 0500 UTC 20 April 2019
Forecast type: FROM: standard forecast or significant change
Winds: from the ENE (60 degrees) at 14 MPH (12 knots; 6.2 m/s)
Visibility: 6 or more miles 10+ km)
Ceiling: 3000 feet AGL
Clouds: broken clouds at 3000 feet AGL
Weather: no significant weather forecast for this period
Text: FM200500 00000KT P6SM SCT030
Forecast period: 0500 to 1700 UTC 20 April 2019
Forecast type: FROM: standard forecast or significant change
Winds: calm
Visibility: 6 or more miles 10+ km)
Ceiling: at least 12,000 feet AGL
Clouds: scattered clouds at 3000 feet AGL
Weather: no significant weather forecast for this period
Text: FM201700 08010KT P6SM SCT230
Forecast period: 1700 UTC 20 April 2019 to 0000 UTC 21 April 2019
Forecast type: FROM: standard forecast or significant change
Winds: from the E (80 degrees) at 12 MPH (10 knots; 5.1 m/s)
Visibility: 6 or more miles 10+ km)
Ceiling: at least 12,000 feet AGL
Clouds: scattered clouds at 23000 feet AGL
Weather: no significant weather forecast for this period